sensor_id;sensor_type;location;lat;lon;timestamp;P1;durP1;ratioP1;P2;durP2;ratioP2
18084;SDS011;9169;44.492;11.372;2023-05-10T00:01:04;32.27;;;7.80;;
18084;SDS011;9169;44.492;11.372;2023-05-10T00:03:34;37.43;;;8.67;;
18084;SDS011;9169;44.492;11.372;2023-05-10T00:06:03;34.57;;;7.60;;
18084;SDS011;9169;44.492;11.372;2023-05-10T00:08:32;43.30;;;7.67;;
18084;SDS011;9169;44.492;11.372;2023-05-10T00:11:00;34.40;;;8.70;;
18084;SDS011;9169;44.492;11.372;2023-05-10T00:13:29;33.97;;;8.13;;
18084;SDS011;9169;44.492;11.372;2023-05-10T00:15:59;36.17;;;8.50;;
18084;SDS011;9169;44.492;11.372;2023-05-10T00:18:27;33.40;;;7.97;;
18084;SDS011;9169;44.492;11.372;2023-05-10T00:20:58;36.00;;;8.10;;
18084;SDS011;9169;44.492;11.372;2023-05-10T00:23:26;37.03;;;8.80;;
18084;SDS011;9169;44.492;11.372;2023-05-10T00:25:55;35.50;;;8.07;;
18084;SDS011;9169;44.492;11.372;2023-05-10T00:28:24;36.30;;;7.83;;
18084;SDS011;9169;44.492;11.372;2023-05-10T00:30:52;35.90;;;7.40;;
18084;SDS011;9169;44.492;11.372;2023-05-10T00:33:21;41.73;;;8.30;;
18084;SDS011;9169;44.492;11.372;2023-05-10T00:35:50;36.57;;;7.33;;
18084;SDS011;9169;44.492;11.372;2023-05-10T00:38:22;37.80;;;7.93;;
18084;SDS011;9169;44.492;11.372;2023-05-10T00:40:50;36.80;;;7.40;;
18084;SDS011;9169;44.492;11.372;2023-05-10T00:43:26;39.47;;;7.97;;
18084;SDS011;9169;44.492;11.372;2023-05-10T00:45:54;37.10;;;7.83;;
18084;SDS011;9169;44.492;11.372;2023-05-10T00:48:23;36.33;;;7.63;;
18084;SDS011;9169;44.492;11.372;2023-05-10T00:50:52;36.53;;;7.60;;
18084;SDS011;9169;44.492;11.372;2023-05-10T00:53:22;37.03;;;7.23;;
18084;SDS011;9169;44.492;11.372;2023-05-10T00:55:52;39.70;;;8.87;;
18084;SDS011;9169;44.492;11.372;2023-05-10T00:58:21;39.43;;;8.53;;
18084;SDS011;9169;44.492;11.372;2023-05-10T01:00:50;39.77;;;8.20;;
18084;SDS011;9169;44.492;11.372;2023-05-10T01:03:20;39.30;;;8.03;;
18084;SDS011;9169;44.492;11.372;2023-05-10T01:05:49;38.83;;;7.93;;
18084;SDS011;9169;44.492;11.372;2023-05-10T01:08:18;41.20;;;7.60;;
18084;SDS011;9169;44.492;11.372;2023-05-10T01:10:48;41.30;;;7.43;;
18084;SDS011;9169;44.492;11.372;2023-05-10T01:13:18;41.90;;;8.17;;
18084;SDS011;9169;44.492;11.372;2023-05-10T01:15:56;43.47;;;8.07;;
18084;SDS011;9169;44.492;11.372;2023-05-10T01:18:26;42.40;;;7.93;;
18084;SDS011;9169;44.492;11.372;2023-05-10T01:20:59;41.93;;;7.37;;
18084;SDS011;9169;44.492;11.372;2023-05-10T01:23:44;43.67;;;8.33;;
18084;SDS011;9169;44.492;11.372;2023-05-10T01:26:31;42.57;;;7.00;;
18084;SDS011;9169;44.492;11.372;2023-05-10T01:32:43;47.27;;;7.67;;
18084;SDS011;9169;44.492;11.372;2023-05-10T01:35:18;40.47;;;7.40;;
18084;SDS011;9169;44.492;11.372;2023-05-10T01:37:57;41.13;;;7.53;;
18084;SDS011;9169;44.492;11.372;2023-05-10T01:40:46;45.10;;;7.70;;
18084;SDS011;9169;44.492;11.372;2023-05-10T01:43:21;43.43;;;7.43;;
18084;SDS011;9169;44.492;11.372;2023-05-10T01:45:57;44.37;;;8.10;;
18084;SDS011;9169;44.492;11.372;2023-05-10T01:48:38;48.67;;;7.80;;
18084;SDS011;9169;44.492;11.372;2023-05-10T01:51:14;45.17;;;7.87;;
18084;SDS011;9169;44.492;11.372;2023-05-10T01:53:49;44.30;;;8.03;;
18084;SDS011;9169;44.492;11.372;2023-05-10T01:56:22;43.60;;;7.57;;
18084;SDS011;9169;44.492;11.372;2023-05-10T01:58:54;44.83;;;8.60;;
18084;SDS011;9169;44.492;11.372;2023-05-10T02:01:24;42.97;;;6.83;;
18084;SDS011;9169;44.492;11.372;2023-05-10T02:03:56;44.30;;;7.80;;
18084;SDS011;9169;44.492;11.372;2023-05-10T02:06:25;43.50;;;7.20;;
18084;SDS011;9169;44.492;11.372;2023-05-10T02:08:55;45.27;;;7.90;;
18084;SDS011;9169;44.492;11.372;2023-05-10T02:11:25;43.40;;;6.60;;
18084;SDS011;9169;44.492;11.372;2023-05-10T02:13:55;45.93;;;6.90;;
18084;SDS011;9169;44.492;11.372;2023-05-10T02:16:28;44.03;;;8.03;;
18084;SDS011;9169;44.492;11.372;2023-05-10T02:19:00;43.60;;;6.33;;
18084;SDS011;9169;44.492;11.372;2023-05-10T02:21:30;42.80;;;5.80;;
18084;SDS011;9169;44.492;11.372;2023-05-10T02:24:00;44.80;;;6.67;;
18084;SDS011;9169;44.492;11.372;2023-05-10T02:26:31;46.73;;;6.30;;
18084;SDS011;9169;44.492;11.372;2023-05-10T02:29:01;41.77;;;6.83;;
18084;SDS011;9169;44.492;11.372;2023-05-10T02:31:31;44.00;;;6.00;;
18084;SDS011;9169;44.492;11.372;2023-05-10T02:34:02;42.30;;;5.77;;
18084;SDS011;9169;44.492;11.372;2023-05-10T02:36:33;42.77;;;6.43;;
18084;SDS011;9169;44.492;11.372;2023-05-10T02:39:03;43.13;;;5.70;;
18084;SDS011;9169;44.492;11.372;2023-05-10T02:41:36;45.20;;;6.10;;
18084;SDS011;9169;44.492;11.372;2023-05-10T02:44:07;45.00;;;5.83;;
18084;SDS011;9169;44.492;11.372;2023-05-10T02:46:37;47.90;;;6.63;;
18084;SDS011;9169;44.492;11.372;2023-05-10T02:49:07;47.93;;;6.30;;
18084;SDS011;9169;44.492;11.372;2023-05-10T02:51:37;47.20;;;5.70;;
18084;SDS011;9169;44.492;11.372;2023-05-10T02:54:10;44.97;;;5.63;;
18084;SDS011;9169;44.492;11.372;2023-05-10T02:56:43;44.60;;;6.30;;
18084;SDS011;9169;44.492;11.372;2023-05-10T02:59:18;46.40;;;6.50;;
18084;SDS011;9169;44.492;11.372;2023-05-10T03:01:47;45.00;;;6.33;;
18084;SDS011;9169;44.492;11.372;2023-05-10T03:04:17;47.03;;;6.30;;
18084;SDS011;9169;44.492;11.372;2023-05-10T03:06:46;45.00;;;6.60;;
18084;SDS011;9169;44.492;11.372;2023-05-10T03:09:15;47.07;;;6.40;;
18084;SDS011;9169;44.492;11.372;2023-05-10T03:11:47;46.50;;;6.13;;
18084;SDS011;9169;44.492;11.372;2023-05-10T03:14:26;48.97;;;5.97;;
18084;SDS011;9169;44.492;11.372;2023-05-10T03:17:06;50.43;;;6.47;;
18084;SDS011;9169;44.492;11.372;2023-05-10T03:19:43;49.40;;;6.60;;
18084;SDS011;9169;44.492;11.372;2023-05-10T03:22:19;47.20;;;7.07;;
18084;SDS011;9169;44.492;11.372;2023-05-10T03:24:53;50.70;;;6.80;;
18084;SDS011;9169;44.492;11.372;2023-05-10T03:27:27;48.10;;;6.40;;
18084;SDS011;9169;44.492;11.372;2023-05-10T03:29:59;48.07;;;6.50;;
18084;SDS011;9169;44.492;11.372;2023-05-10T03:32:32;52.67;;;6.83;;
18084;SDS011;9169;44.492;11.372;2023-05-10T03:35:07;47.37;;;6.30;;
18084;SDS011;9169;44.492;11.372;2023-05-10T03:37:36;48.97;;;6.80;;
18084;SDS011;9169;44.492;11.372;2023-05-10T03:40:05;48.53;;;6.47;;
18084;SDS011;9169;44.492;11.372;2023-05-10T03:42:38;49.40;;;6.23;;
18084;SDS011;9169;44.492;11.372;2023-05-10T03:45:07;48.13;;;6.20;;
18084;SDS011;9169;44.492;11.372;2023-05-10T03:47:36;49.17;;;6.20;;
18084;SDS011;9169;44.492;11.372;2023-05-10T03:50:07;49.27;;;6.50;;
18084;SDS011;9169;44.492;11.372;2023-05-10T03:52:37;52.97;;;6.57;;
18084;SDS011;9169;44.492;11.372;2023-05-10T03:55:05;49.60;;;6.07;;
18084;SDS011;9169;44.492;11.372;2023-05-10T03:57:34;47.27;;;6.10;;
18084;SDS011;9169;44.492;11.372;2023-05-10T04:00:03;49.20;;;6.70;;
18084;SDS011;9169;44.492;11.372;2023-05-10T04:02:40;50.80;;;6.27;;
18084;SDS011;9169;44.492;11.372;2023-05-10T04:05:15;48.20;;;6.07;;
18084;SDS011;9169;44.492;11.372;2023-05-10T04:07:43;49.90;;;6.30;;
18084;SDS011;9169;44.492;11.372;2023-05-10T04:10:14;50.00;;;6.60;;
18084;SDS011;9169;44.492;11.372;2023-05-10T04:12:43;50.30;;;6.57;;
18084;SDS011;9169;44.492;11.372;2023-05-10T04:15:11;49.67;;;6.33;;
18084;SDS011;9169;44.492;11.372;2023-05-10T04:17:40;51.90;;;7.00;;
18084;SDS011;9169;44.492;11.372;2023-05-10T04:20:09;50.70;;;6.30;;
18084;SDS011;9169;44.492;11.372;2023-05-10T04:22:40;54.30;;;6.90;;
18084;SDS011;9169;44.492;11.372;2023-05-10T04:25:09;52.00;;;7.27;;
18084;SDS011;9169;44.492;11.372;2023-05-10T04:27:38;54.57;;;8.70;;
18084;SDS011;9169;44.492;11.372;2023-05-10T04:30:07;50.87;;;7.10;;
18084;SDS011;9169;44.492;11.372;2023-05-10T04:32:36;51.20;;;7.70;;
18084;SDS011;9169;44.492;11.372;2023-05-10T04:35:05;51.00;;;7.30;;
18084;SDS011;9169;44.492;11.372;2023-05-10T04:37:34;56.60;;;7.67;;
18084;SDS011;9169;44.492;11.372;2023-05-10T04:40:05;51.27;;;6.60;;
18084;SDS011;9169;44.492;11.372;2023-05-10T04:42:34;51.60;;;6.80;;
18084;SDS011;9169;44.492;11.372;2023-05-10T04:45:03;51.97;;;6.07;;
18084;SDS011;9169;44.492;11.372;2023-05-10T04:47:33;51.30;;;7.47;;
18084;SDS011;9169;44.492;11.372;2023-05-10T04:50:01;52.50;;;8.17;;
18084;SDS011;9169;44.492;11.372;2023-05-10T04:52:30;51.23;;;6.40;;
18084;SDS011;9169;44.492;11.372;2023-05-10T04:54:59;52.33;;;8.00;;
18084;SDS011;9169;44.492;11.372;2023-05-10T04:57:29;54.70;;;7.57;;
18084;SDS011;9169;44.492;11.372;2023-05-10T04:59:57;53.23;;;6.33;;
18084;SDS011;9169;44.492;11.372;2023-05-10T05:02:27;52.93;;;7.80;;
18084;SDS011;9169;44.492;11.372;2023-05-10T05:04:57;66.33;;;7.33;;
18084;SDS011;9169;44.492;11.372;2023-05-10T05:07:26;52.77;;;6.57;;
18084;SDS011;9169;44.492;11.372;2023-05-10T05:09:54;57.03;;;8.60;;
18084;SDS011;9169;44.492;11.372;2023-05-10T05:12:23;50.63;;;6.00;;
18084;SDS011;9169;44.492;11.372;2023-05-10T05:14:53;51.23;;;5.57;;
18084;SDS011;9169;44.492;11.372;2023-05-10T05:17:22;51.47;;;6.70;;
18084;SDS011;9169;44.492;11.372;2023-05-10T05:19:50;50.57;;;6.20;;
18084;SDS011;9169;44.492;11.372;2023-05-10T05:22:19;53.63;;;7.80;;
18084;SDS011;9169;44.492;11.372;2023-05-10T05:24:53;50.80;;;5.47;;
18084;SDS011;9169;44.492;11.372;2023-05-10T05:27:23;51.73;;;6.43;;
18084;SDS011;9169;44.492;11.372;2023-05-10T05:29:56;54.43;;;6.20;;
18084;SDS011;9169;44.492;11.372;2023-05-10T05:32:25;52.50;;;5.90;;
18084;SDS011;9169;44.492;11.372;2023-05-10T05:34:54;53.50;;;5.70;;
18084;SDS011;9169;44.492;11.372;2023-05-10T05:37:22;54.47;;;6.00;;
18084;SDS011;9169;44.492;11.372;2023-05-10T05:39:51;51.40;;;5.63;;
18084;SDS011;9169;44.492;11.372;2023-05-10T05:42:21;53.37;;;5.60;;
18084;SDS011;9169;44.492;11.372;2023-05-10T05:44:51;50.70;;;6.10;;
18084;SDS011;9169;44.492;11.372;2023-05-10T05:47:22;52.67;;;6.47;;
18084;SDS011;9169;44.492;11.372;2023-05-10T05:49:50;51.27;;;6.00;;
18084;SDS011;9169;44.492;11.372;2023-05-10T05:52:19;52.30;;;6.20;;
18084;SDS011;9169;44.492;11.372;2023-05-10T05:54:47;53.73;;;6.80;;
18084;SDS011;9169;44.492;11.372;2023-05-10T05:57:16;53.40;;;6.87;;
18084;SDS011;9169;44.492;11.372;2023-05-10T05:59:45;54.00;;;6.80;;
18084;SDS011;9169;44.492;11.372;2023-05-10T06:02:13;51.90;;;6.17;;
18084;SDS011;9169;44.492;11.372;2023-05-10T06:04:43;53.20;;;5.83;;
18084;SDS011;9169;44.492;11.372;2023-05-10T06:07:12;55.27;;;6.10;;
18084;SDS011;9169;44.492;11.372;2023-05-10T06:09:40;53.10;;;7.00;;
18084;SDS011;9169;44.492;11.372;2023-05-10T06:12:09;58.77;;;6.83;;
18084;SDS011;9169;44.492;11.372;2023-05-10T06:14:38;54.27;;;6.73;;
18084;SDS011;9169;44.492;11.372;2023-05-10T06:17:06;55.47;;;6.87;;
18084;SDS011;9169;44.492;11.372;2023-05-10T06:19:35;54.50;;;6.63;;
18084;SDS011;9169;44.492;11.372;2023-05-10T06:22:05;53.63;;;7.27;;
18084;SDS011;9169;44.492;11.372;2023-05-10T06:24:34;58.10;;;9.67;;
18084;SDS011;9169;44.492;11.372;2023-05-10T06:27:03;55.50;;;7.10;;
18084;SDS011;9169;44.492;11.372;2023-05-10T06:29:31;53.07;;;6.30;;
18084;SDS011;9169;44.492;11.372;2023-05-10T06:32:00;53.93;;;6.60;;
18084;SDS011;9169;44.492;11.372;2023-05-10T06:34:29;56.23;;;7.13;;
18084;SDS011;9169;44.492;11.372;2023-05-10T06:36:58;53.10;;;6.33;;
18084;SDS011;9169;44.492;11.372;2023-05-10T06:39:28;53.50;;;6.13;;
18084;SDS011;9169;44.492;11.372;2023-05-10T06:41:56;54.27;;;6.53;;
18084;SDS011;9169;44.492;11.372;2023-05-10T06:44:31;53.50;;;6.53;;
18084;SDS011;9169;44.492;11.372;2023-05-10T06:47:02;52.57;;;5.97;;
18084;SDS011;9169;44.492;11.372;2023-05-10T06:49:31;54.50;;;6.30;;
18084;SDS011;9169;44.492;11.372;2023-05-10T06:51:59;53.77;;;6.57;;
18084;SDS011;9169;44.492;11.372;2023-05-10T06:54:29;57.20;;;6.97;;
18084;SDS011;9169;44.492;11.372;2023-05-10T06:56:58;52.17;;;6.10;;
18084;SDS011;9169;44.492;11.372;2023-05-10T06:59:27;52.40;;;5.80;;
18084;SDS011;9169;44.492;11.372;2023-05-10T07:01:56;52.23;;;6.20;;
18084;SDS011;9169;44.492;11.372;2023-05-10T07:04:24;54.33;;;6.33;;
18084;SDS011;9169;44.492;11.372;2023-05-10T07:06:53;55.07;;;6.13;;
18084;SDS011;9169;44.492;11.372;2023-05-10T07:09:24;54.03;;;6.57;;
18084;SDS011;9169;44.492;11.372;2023-05-10T07:11:54;53.17;;;6.20;;
18084;SDS011;9169;44.492;11.372;2023-05-10T07:14:24;53.13;;;5.90;;
18084;SDS011;9169;44.492;11.372;2023-05-10T07:16:53;53.73;;;6.20;;
18084;SDS011;9169;44.492;11.372;2023-05-10T07:19:22;55.47;;;7.07;;
18084;SDS011;9169;44.492;11.372;2023-05-10T07:21:50;51.93;;;5.93;;
18084;SDS011;9169;44.492;11.372;2023-05-10T07:24:19;54.57;;;7.30;;
18084;SDS011;9169;44.492;11.372;2023-05-10T07:26:48;58.50;;;6.57;;
18084;SDS011;9169;44.492;11.372;2023-05-10T07:29:18;53.03;;;5.87;;
18084;SDS011;9169;44.492;11.372;2023-05-10T07:31:46;51.80;;;5.73;;
18084;SDS011;9169;44.492;11.372;2023-05-10T07:34:15;54.37;;;6.60;;
18084;SDS011;9169;44.492;11.372;2023-05-10T07:36:43;52.77;;;6.27;;
18084;SDS011;9169;44.492;11.372;2023-05-10T07:39:12;51.97;;;6.33;;
18084;SDS011;9169;44.492;11.372;2023-05-10T07:41:44;52.30;;;6.03;;
18084;SDS011;9169;44.492;11.372;2023-05-10T07:44:13;52.30;;;5.90;;
18084;SDS011;9169;44.492;11.372;2023-05-10T07:46:42;53.50;;;5.10;;
18084;SDS011;9169;44.492;11.372;2023-05-10T07:49:11;53.20;;;5.43;;
18084;SDS011;9169;44.492;11.372;2023-05-10T07:51:40;54.53;;;5.63;;
18084;SDS011;9169;44.492;11.372;2023-05-10T07:54:09;52.37;;;5.07;;
18084;SDS011;9169;44.492;11.372;2023-05-10T07:56:37;54.50;;;4.97;;
18084;SDS011;9169;44.492;11.372;2023-05-10T07:59:08;52.97;;;5.70;;
18084;SDS011;9169;44.492;11.372;2023-05-10T08:01:38;53.57;;;5.27;;
18084;SDS011;9169;44.492;11.372;2023-05-10T08:04:08;52.67;;;5.70;;
18084;SDS011;9169;44.492;11.372;2023-05-10T08:06:37;54.43;;;5.83;;
18084;SDS011;9169;44.492;11.372;2023-05-10T08:09:06;53.30;;;5.03;;
18084;SDS011;9169;44.492;11.372;2023-05-10T08:11:34;53.00;;;5.43;;
18084;SDS011;9169;44.492;11.372;2023-05-10T08:14:03;52.60;;;4.77;;
18084;SDS011;9169;44.492;11.372;2023-05-10T08:16:32;51.87;;;5.60;;
18084;SDS011;9169;44.492;11.372;2023-05-10T08:19:01;52.30;;;5.70;;
18084;SDS011;9169;44.492;11.372;2023-05-10T08:21:31;54.10;;;5.33;;
18084;SDS011;9169;44.492;11.372;2023-05-10T08:24:00;52.60;;;5.17;;
18084;SDS011;9169;44.492;11.372;2023-05-10T08:26:28;54.73;;;6.17;;
18084;SDS011;9169;44.492;11.372;2023-05-10T08:28:58;53.07;;;5.50;;
18084;SDS011;9169;44.492;11.372;2023-05-10T08:31:27;51.70;;;5.40;;
18084;SDS011;9169;44.492;11.372;2023-05-10T08:33:55;52.67;;;5.63;;
18084;SDS011;9169;44.492;11.372;2023-05-10T08:36:24;54.50;;;6.30;;
18084;SDS011;9169;44.492;11.372;2023-05-10T08:38:54;54.97;;;6.00;;
18084;SDS011;9169;44.492;11.372;2023-05-10T08:41:23;54.13;;;5.40;;
18084;SDS011;9169;44.492;11.372;2023-05-10T08:43:53;55.30;;;6.43;;
18084;SDS011;9169;44.492;11.372;2023-05-10T08:46:22;54.90;;;6.80;;
18084;SDS011;9169;44.492;11.372;2023-05-10T08:48:51;55.20;;;6.50;;
18084;SDS011;9169;44.492;11.372;2023-05-10T08:51:22;58.00;;;7.20;;
18084;SDS011;9169;44.492;11.372;2023-05-10T08:53:54;52.10;;;5.87;;
18084;SDS011;9169;44.492;11.372;2023-05-10T08:56:24;51.67;;;5.67;;
18084;SDS011;9169;44.492;11.372;2023-05-10T08:58:53;54.27;;;5.40;;
18084;SDS011;9169;44.492;11.372;2023-05-10T09:01:22;52.43;;;5.30;;
18084;SDS011;9169;44.492;11.372;2023-05-10T09:03:51;56.13;;;8.77;;
18084;SDS011;9169;44.492;11.372;2023-05-10T09:06:20;53.03;;;6.40;;
18084;SDS011;9169;44.492;11.372;2023-05-10T09:08:49;52.00;;;6.03;;
18084;SDS011;9169;44.492;11.372;2023-05-10T09:11:21;51.50;;;5.93;;
18084;SDS011;9169;44.492;11.372;2023-05-10T09:13:51;53.07;;;5.47;;
18084;SDS011;9169;44.492;11.372;2023-05-10T09:16:20;51.57;;;5.30;;
18084;SDS011;9169;44.492;11.372;2023-05-10T09:18:50;51.10;;;5.27;;
18084;SDS011;9169;44.492;11.372;2023-05-10T09:21:19;50.73;;;5.27;;
18084;SDS011;9169;44.492;11.372;2023-05-10T09:23:48;51.00;;;5.30;;
18084;SDS011;9169;44.492;11.372;2023-05-10T09:26:23;52.47;;;6.40;;
18084;SDS011;9169;44.492;11.372;2023-05-10T09:28:52;51.50;;;5.60;;
18084;SDS011;9169;44.492;11.372;2023-05-10T09:31:22;51.70;;;5.13;;
18084;SDS011;9169;44.492;11.372;2023-05-10T09:33:51;54.70;;;5.13;;
18084;SDS011;9169;44.492;11.372;2023-05-10T09:36:20;51.83;;;5.60;;
18084;SDS011;9169;44.492;11.372;2023-05-10T09:38:50;53.70;;;6.10;;
18084;SDS011;9169;44.492;11.372;2023-05-10T09:41:23;53.60;;;5.93;;
18084;SDS011;9169;44.492;11.372;2023-05-10T09:43:55;53.63;;;6.30;;
18084;SDS011;9169;44.492;11.372;2023-05-10T09:46:24;52.40;;;5.50;;
18084;SDS011;9169;44.492;11.372;2023-05-10T09:48:52;50.50;;;4.80;;
18084;SDS011;9169;44.492;11.372;2023-05-10T09:51:24;53.17;;;5.40;;
18084;SDS011;9169;44.492;11.372;2023-05-10T09:54:08;52.70;;;5.70;;
18084;SDS011;9169;44.492;11.372;2023-05-10T09:56:39;53.63;;;5.73;;
18084;SDS011;9169;44.492;11.372;2023-05-10T09:59:09;52.77;;;5.93;;
18084;SDS011;9169;44.492;11.372;2023-05-10T10:01:38;54.00;;;5.43;;
18084;SDS011;9169;44.492;11.372;2023-05-10T10:04:08;51.10;;;4.40;;
18084;SDS011;9169;44.492;11.372;2023-05-10T10:06:37;54.90;;;4.90;;
18084;SDS011;9169;44.492;11.372;2023-05-10T10:09:07;51.23;;;5.20;;
18084;SDS011;9169;44.492;11.372;2023-05-10T10:11:37;53.63;;;5.33;;
18084;SDS011;9169;44.492;11.372;2023-05-10T10:14:08;54.57;;;5.27;;
18084;SDS011;9169;44.492;11.372;2023-05-10T10:16:37;51.80;;;4.40;;
18084;SDS011;9169;44.492;11.372;2023-05-10T10:19:11;51.33;;;4.60;;
18084;SDS011;9169;44.492;11.372;2023-05-10T10:21:40;52.27;;;4.80;;
18084;SDS011;9169;44.492;11.372;2023-05-10T10:24:09;51.27;;;4.60;;
18084;SDS011;9169;44.492;11.372;2023-05-10T10:26:38;51.40;;;5.00;;
18084;SDS011;9169;44.492;11.372;2023-05-10T10:29:12;51.80;;;4.60;;
18084;SDS011;9169;44.492;11.372;2023-05-10T10:31:51;53.90;;;4.90;;
18084;SDS011;9169;44.492;11.372;2023-05-10T10:34:28;54.43;;;4.83;;
18084;SDS011;9169;44.492;11.372;2023-05-10T10:36:58;51.27;;;4.70;;
18084;SDS011;9169;44.492;11.372;2023-05-10T10:39:33;53.90;;;6.40;;
18084;SDS011;9169;44.492;11.372;2023-05-10T10:42:04;53.90;;;5.33;;
18084;SDS011;9169;44.492;11.372;2023-05-10T10:44:34;52.50;;;5.50;;
18084;SDS011;9169;44.492;11.372;2023-05-10T10:47:06;51.90;;;5.40;;
18084;SDS011;9169;44.492;11.372;2023-05-10T10:49:48;52.37;;;5.57;;
18084;SDS011;9169;44.492;11.372;2023-05-10T10:52:25;53.30;;;5.97;;
18084;SDS011;9169;44.492;11.372;2023-05-10T10:55:00;53.20;;;4.80;;
18084;SDS011;9169;44.492;11.372;2023-05-10T10:57:33;51.07;;;4.73;;
18084;SDS011;9169;44.492;11.372;2023-05-10T11:00:21;53.73;;;5.33;;
18084;SDS011;9169;44.492;11.372;2023-05-10T11:02:52;51.30;;;4.90;;
18084;SDS011;9169;44.492;11.372;2023-05-10T11:05:22;52.43;;;5.87;;
18084;SDS011;9169;44.492;11.372;2023-05-10T11:08:13;52.47;;;6.07;;
18084;SDS011;9169;44.492;11.372;2023-05-10T11:10:50;51.90;;;5.30;;
18084;SDS011;9169;44.492;11.372;2023-05-10T11:13:30;52.77;;;5.47;;
18084;SDS011;9169;44.492;11.372;2023-05-10T11:16:09;52.40;;;5.30;;
18084;SDS011;9169;44.492;11.372;2023-05-10T11:18:51;51.67;;;5.50;;
18084;SDS011;9169;44.492;11.372;2023-05-10T11:21:21;51.57;;;5.80;;
18084;SDS011;9169;44.492;11.372;2023-05-10T11:23:51;52.60;;;5.10;;
18084;SDS011;9169;44.492;11.372;2023-05-10T11:26:23;53.60;;;6.10;;
18084;SDS011;9169;44.492;11.372;2023-05-10T11:28:54;52.73;;;6.03;;
18084;SDS011;9169;44.492;11.372;2023-05-10T11:31:27;51.60;;;5.40;;
18084;SDS011;9169;44.492;11.372;2023-05-10T11:33:57;50.97;;;5.20;;
18084;SDS011;9169;44.492;11.372;2023-05-10T11:36:28;55.30;;;5.17;;
18084;SDS011;9169;44.492;11.372;2023-05-10T11:39:00;54.83;;;5.50;;
18084;SDS011;9169;44.492;11.372;2023-05-10T11:41:29;50.90;;;4.83;;
18084;SDS011;9169;44.492;11.372;2023-05-10T11:44:00;51.20;;;5.17;;
18084;SDS011;9169;44.492;11.372;2023-05-10T11:46:30;51.80;;;5.70;;
18084;SDS011;9169;44.492;11.372;2023-05-10T11:48:59;51.50;;;5.73;;
18084;SDS011;9169;44.492;11.372;2023-05-10T11:51:32;56.23;;;5.03;;
18084;SDS011;9169;44.492;11.372;2023-05-10T11:54:05;52.87;;;5.23;;
18084;SDS011;9169;44.492;11.372;2023-05-10T11:56:35;54.60;;;4.80;;
18084;SDS011;9169;44.492;11.372;2023-05-10T11:59:06;52.60;;;5.83;;
18084;SDS011;9169;44.492;11.372;2023-05-10T12:01:35;52.30;;;5.90;;
18084;SDS011;9169;44.492;11.372;2023-05-10T12:04:03;51.73;;;5.70;;
18084;SDS011;9169;44.492;11.372;2023-05-10T12:06:34;55.27;;;5.67;;
18084;SDS011;9169;44.492;11.372;2023-05-10T12:09:08;53.57;;;5.60;;
18084;SDS011;9169;44.492;11.372;2023-05-10T12:11:37;52.20;;;5.00;;
18084;SDS011;9169;44.492;11.372;2023-05-10T12:14:10;52.80;;;5.40;;
18084;SDS011;9169;44.492;11.372;2023-05-10T12:16:39;51.97;;;4.93;;
18084;SDS011;9169;44.492;11.372;2023-05-10T12:19:08;50.07;;;4.87;;
18084;SDS011;9169;44.492;11.372;2023-05-10T12:21:36;52.53;;;5.57;;
18084;SDS011;9169;44.492;11.372;2023-05-10T12:24:05;52.37;;;5.20;;
18084;SDS011;9169;44.492;11.372;2023-05-10T12:26:35;50.67;;;4.97;;
18084;SDS011;9169;44.492;11.372;2023-05-10T12:29:23;51.60;;;5.30;;
18084;SDS011;9169;44.492;11.372;2023-05-10T12:31:52;50.40;;;4.20;;
18084;SDS011;9169;44.492;11.372;2023-05-10T12:34:30;52.73;;;5.50;;
18084;SDS011;9169;44.492;11.372;2023-05-10T12:37:00;51.17;;;4.57;;
18084;SDS011;9169;44.492;11.372;2023-05-10T12:39:38;50.67;;;4.67;;
18084;SDS011;9169;44.492;11.372;2023-05-10T12:42:08;50.50;;;4.40;;
18084;SDS011;9169;44.492;11.372;2023-05-10T12:44:38;51.57;;;5.37;;
18084;SDS011;9169;44.492;11.372;2023-05-10T12:47:06;51.07;;;4.60;;
18084;SDS011;9169;44.492;11.372;2023-05-10T12:49:35;55.03;;;4.90;;
18084;SDS011;9169;44.492;11.372;2023-05-10T12:52:03;51.17;;;4.77;;
18084;SDS011;9169;44.492;11.372;2023-05-10T12:54:32;52.90;;;4.87;;
18084;SDS011;9169;44.492;11.372;2023-05-10T12:57:01;52.50;;;4.57;;
18084;SDS011;9169;44.492;11.372;2023-05-10T12:59:29;50.40;;;4.47;;
18084;SDS011;9169;44.492;11.372;2023-05-10T13:01:59;53.00;;;6.23;;
18084;SDS011;9169;44.492;11.372;2023-05-10T13:04:28;50.90;;;4.97;;
18084;SDS011;9169;44.492;11.372;2023-05-10T13:06:56;51.53;;;4.70;;
18084;SDS011;9169;44.492;11.372;2023-05-10T13:09:25;50.90;;;4.50;;
18084;SDS011;9169;44.492;11.372;2023-05-10T13:11:56;51.47;;;4.57;;
18084;SDS011;9169;44.492;11.372;2023-05-10T13:14:24;52.10;;;4.17;;
18084;SDS011;9169;44.492;11.372;2023-05-10T13:16:53;51.67;;;4.47;;
18084;SDS011;9169;44.492;11.372;2023-05-10T13:19:23;51.30;;;4.70;;
18084;SDS011;9169;44.492;11.372;2023-05-10T13:21:52;53.53;;;4.63;;
18084;SDS011;9169;44.492;11.372;2023-05-10T13:24:21;51.73;;;4.80;;
18084;SDS011;9169;44.492;11.372;2023-05-10T13:26:49;51.00;;;4.40;;
18084;SDS011;9169;44.492;11.372;2023-05-10T13:29:18;51.60;;;4.80;;
18084;SDS011;9169;44.492;11.372;2023-05-10T13:31:47;52.17;;;4.73;;
18084;SDS011;9169;44.492;11.372;2023-05-10T13:34:16;52.10;;;5.60;;
18084;SDS011;9169;44.492;11.372;2023-05-10T13:36:50;50.40;;;4.20;;
18084;SDS011;9169;44.492;11.372;2023-05-10T13:39:22;51.97;;;4.50;;
18084;SDS011;9169;44.492;11.372;2023-05-10T13:41:51;52.40;;;5.20;;
18084;SDS011;9169;44.492;11.372;2023-05-10T13:44:21;52.97;;;4.30;;
18084;SDS011;9169;44.492;11.372;2023-05-10T13:46:50;50.13;;;3.70;;
18084;SDS011;9169;44.492;11.372;2023-05-10T13:49:18;50.30;;;4.10;;
18084;SDS011;9169;44.492;11.372;2023-05-10T13:51:48;52.40;;;4.97;;
18084;SDS011;9169;44.492;11.372;2023-05-10T13:54:18;52.80;;;5.20;;
18084;SDS011;9169;44.492;11.372;2023-05-10T13:56:48;52.10;;;4.50;;
18084;SDS011;9169;44.492;11.372;2023-05-10T13:59:20;51.10;;;4.23;;
18084;SDS011;9169;44.492;11.372;2023-05-10T14:01:49;50.47;;;3.90;;
18084;SDS011;9169;44.492;11.372;2023-05-10T14:04:18;51.10;;;4.10;;
18084;SDS011;9169;44.492;11.372;2023-05-10T14:06:46;55.77;;;5.10;;
18084;SDS011;9169;44.492;11.372;2023-05-10T14:09:15;52.30;;;4.50;;
18084;SDS011;9169;44.492;11.372;2023-05-10T14:11:45;51.10;;;4.40;;
18084;SDS011;9169;44.492;11.372;2023-05-10T14:14:13;51.47;;;4.93;;
18084;SDS011;9169;44.492;11.372;2023-05-10T14:16:43;50.90;;;4.50;;
18084;SDS011;9169;44.492;11.372;2023-05-10T14:19:12;51.67;;;4.73;;
18084;SDS011;9169;44.492;11.372;2023-05-10T14:21:41;51.33;;;4.70;;
18084;SDS011;9169;44.492;11.372;2023-05-10T14:24:10;51.70;;;4.87;;
18084;SDS011;9169;44.492;11.372;2023-05-10T14:26:38;51.80;;;4.73;;
18084;SDS011;9169;44.492;11.372;2023-05-10T14:29:09;51.70;;;5.07;;
18084;SDS011;9169;44.492;11.372;2023-05-10T14:31:38;56.50;;;4.80;;
18084;SDS011;9169;44.492;11.372;2023-05-10T14:34:07;51.47;;;4.50;;
18084;SDS011;9169;44.492;11.372;2023-05-10T14:36:35;50.67;;;4.37;;
18084;SDS011;9169;44.492;11.372;2023-05-10T14:39:04;51.43;;;4.70;;
18084;SDS011;9169;44.492;11.372;2023-05-10T14:41:33;51.20;;;4.40;;
18084;SDS011;9169;44.492;11.372;2023-05-10T14:44:02;51.80;;;5.47;;
18084;SDS011;9169;44.492;11.372;2023-05-10T14:46:32;55.13;;;8.67;;
18084;SDS011;9169;44.492;11.372;2023-05-10T14:49:01;51.77;;;5.30;;
18084;SDS011;9169;44.492;11.372;2023-05-10T14:51:29;54.50;;;5.80;;
18084;SDS011;9169;44.492;11.372;2023-05-10T14:53:58;51.63;;;5.40;;
18084;SDS011;9169;44.492;11.372;2023-05-10T14:56:27;53.00;;;5.50;;